Ana Sayfa
METAR-TAF:

METAR-TAF

Havaalanları :

Adana, Türkiye

Şakirpaşa Havalimanı

Enlem: 36-59N, Boylam: 035-18E, yükseklik: 20 m

Güncel hava durumu gözlemi

Rapor saat 13:50 UTC de 50 dakika önce yapıldı.
Rüzgar güney/güneydoğudan 6 kt, doğu/güneydoğu ve güney arasında değişken
Sıcaklık 20°C
Nem 40%
Basınç 1008 hPa
Görüş mesafesi 10 km veya daha fazla
3500 ft yükseklikte parçalı bulutlu

METAR: LTAF 231350Z 16006KT 120V180 9999 SCT035 20/06 Q1008 NOSIG

Saat: 17:40 (14:40 UTC)


TAF: eksik

4.000'den fazla havaalanı için hava durumu gözlemleri ve tahminleri (METAR ve TAF raporları).

Kullanılabilir istasyonlar harita üzerinde sarı ve kırmızı noktalarla gösterilir.

İstasyonun adını görmek için fareyi noktanın üzerinde gezdirin.

Sonrasında hava gözlem ve tahminlerini görmek için tıklayın.

Haritayı değiştirmek için: yaklaştırmak için siyah artı işaretli yeşil düğmeye ve uzaklaştırmak için de eksi işaretli düğmeye hızla tıklayın; bitişik haritalar için yeşil okları kullanın.


METAR-TAF: